createdAt,value
2023-01-19T00:03:28.473Z,2.03
2023-01-19T00:13:37.510Z,1.27
2023-01-19T00:23:44.947Z,0.88
2023-01-19T00:33:53.559Z,1.25
2023-01-19T00:44:00.424Z,1.17
2023-01-19T00:54:11.102Z,1.10
2023-01-19T01:04:17.903Z,1.83
2023-01-19T01:14:27.068Z,1.45
2023-01-19T01:24:33.700Z,0.98
2023-01-19T01:34:42.158Z,0.60
2023-01-19T01:44:54.624Z,0.70
2023-01-19T01:55:07.758Z,1.02
2023-01-19T02:05:16.161Z,1.00
2023-01-19T02:15:25.404Z,3.28
2023-01-19T02:25:33.902Z,0.68
2023-01-19T02:35:42.506Z,0.70
2023-01-19T02:45:51.238Z,1.35
2023-01-19T02:56:06.287Z,0.90
2023-01-19T03:06:25.977Z,1.02
2023-01-19T03:16:38.530Z,0.90
2023-01-19T03:26:50.224Z,1.50
2023-01-19T03:36:59.773Z,0.70
2023-01-19T03:47:10.075Z,1.38
2023-01-19T03:57:16.836Z,0.52
2023-01-19T04:07:25.325Z,0.40
2023-01-19T04:17:34.228Z,1.35
2023-01-19T04:27:42.637Z,0.73
2023-01-19T04:37:49.340Z,1.60
2023-01-19T04:47:57.712Z,2.60
2023-01-19T04:58:04.642Z,0.98
2023-01-19T05:08:12.956Z,1.55
2023-01-19T05:18:20.264Z,1.35
2023-01-19T05:28:28.714Z,3.60
2023-01-19T05:38:36.063Z,3.47
2023-01-19T05:48:44.594Z,3.17
2023-01-19T05:58:51.298Z,3.40
2023-01-19T06:08:59.662Z,2.95
2023-01-19T06:19:07.459Z,5.45
2023-01-19T06:29:16.236Z,4.35
2023-01-19T06:39:22.954Z,3.33
2023-01-19T06:49:31.347Z,2.67
2023-01-19T06:59:38.081Z,4.60
2023-01-19T07:09:46.541Z,2.42
2023-01-19T07:19:55.342Z,2.38
2023-01-19T07:30:03.693Z,1.80
2023-01-19T07:40:11.406Z,2.50
2023-01-19T07:50:22.228Z,2.03
2023-01-19T08:00:29.852Z,2.00
2023-01-19T08:10:38.119Z,1.85
2023-01-19T08:20:45.636Z,1.40
2023-01-19T08:30:56.387Z,1.30
2023-01-19T08:41:05.989Z,1.75
2023-01-19T08:51:16.202Z,1.13
2023-01-19T09:01:23.225Z,1.00
2023-01-19T09:11:32.311Z,1.10
2023-01-19T09:21:40.220Z,1.00
2023-01-19T09:31:48.623Z,0.82
2023-01-19T09:42:03.981Z,0.82
2023-01-19T09:52:15.668Z,1.15
2023-01-19T10:02:33.038Z,0.80
2023-01-19T10:12:53.027Z,0.60
2023-01-19T10:23:01.563Z,0.50
2023-01-19T10:33:10.194Z,0.65
2023-01-19T10:43:44.616Z,0.70
2023-01-19T10:54:01.656Z,0.60
2023-01-19T11:04:24.026Z,0.50
2023-01-19T11:14:34.713Z,0.45
2023-01-19T11:24:43.018Z,0.50
2023-01-19T11:34:51.907Z,0.50
2023-01-19T11:45:15.224Z,0.63
2023-01-19T11:55:28.122Z,0.30
2023-01-19T12:05:38.142Z,0.50
2023-01-19T12:15:47.781Z,0.40
2023-01-19T12:26:09.534Z,0.40
2023-01-19T12:36:38.457Z,0.30
2023-01-19T12:46:46.853Z,0.20
2023-01-19T12:57:01.522Z,0.30
2023-01-19T13:07:14.553Z,0.40
2023-01-19T13:17:31.110Z,0.35
2023-01-19T13:27:40.227Z,0.30
2023-01-19T13:37:55.162Z,0.20
2023-01-19T13:48:04.176Z,0.25
2023-01-19T13:58:24.680Z,0.25
2023-01-19T14:08:33.731Z,0.30
2023-01-19T14:18:42.102Z,0.28
2023-01-19T14:28:49.697Z,0.30
2023-01-19T14:38:59.203Z,0.30
2023-01-19T14:49:07.563Z,0.22
2023-01-19T14:59:15.939Z,0.20
2023-01-19T15:09:22.780Z,0.40
2023-01-19T15:19:31.832Z,0.38
2023-01-19T15:29:39.501Z,0.30
2023-01-19T15:39:50.148Z,1.08
2023-01-19T15:49:56.880Z,3.25
2023-01-19T16:00:05.800Z,1.60
2023-01-19T16:10:17.817Z,2.28
2023-01-19T16:20:26.347Z,1.60
2023-01-19T16:30:36.594Z,2.60
2023-01-19T16:40:47.488Z,1.55
2023-01-19T16:51:02.511Z,1.13
2023-01-19T17:01:16.802Z,1.00
2023-01-19T17:11:26.587Z,0.95
2023-01-19T17:21:34.991Z,1.10
2023-01-19T17:31:42.362Z,0.70
2023-01-19T17:41:50.832Z,0.52
2023-01-19T17:51:57.638Z,1.17
2023-01-19T18:02:05.997Z,0.65
2023-01-19T18:12:12.721Z,0.82
2023-01-19T18:22:21.454Z,1.83
2023-01-19T18:32:28.938Z,0.68
2023-01-19T18:42:37.289Z,1.30
2023-01-19T18:52:44.086Z,0.93
2023-01-19T19:02:52.447Z,1.05
2023-01-19T19:12:59.184Z,0.73
2023-01-19T19:23:07.696Z,0.70
2023-01-19T19:33:15.203Z,1.48
2023-01-19T19:43:23.991Z,1.23
2023-01-19T19:53:30.710Z,1.73
2023-01-19T20:03:39.068Z,1.73
2023-01-19T20:13:48.487Z,1.00
2023-01-19T20:23:57.608Z,1.65
2023-01-19T20:34:07.219Z,1.35
2023-01-19T20:44:17.261Z,1.60
2023-01-19T20:54:27.127Z,1.30
2023-01-19T21:04:35.485Z,1.92
2023-01-19T21:14:43.280Z,2.45
2023-01-19T21:24:52.769Z,1.83
2023-01-19T21:35:00.181Z,2.17
2023-01-19T21:45:09.621Z,2.00
2023-01-19T21:55:16.337Z,1.60
2023-01-19T22:05:24.697Z,1.80
2023-01-19T22:15:32.287Z,5.45
2023-01-19T22:25:40.644Z,2.40
2023-01-19T22:35:47.559Z,1.90
2023-01-19T22:45:56.755Z,1.70
2023-01-19T22:56:03.498Z,2.63
2023-01-19T23:06:14.058Z,3.08
2023-01-19T23:16:21.065Z,1.95
2023-01-19T23:26:31.665Z,3.55
2023-01-19T23:36:40.066Z,2.75
2023-01-19T23:46:48.469Z,1.90
2023-01-19T23:56:55.225Z,2.60
